createdAt,value
2019-01-12T00:00:17.674Z,8.6
2019-01-12T00:05:17.510Z,7.3
2019-01-12T00:10:17.512Z,7.9
2019-01-12T00:15:17.370Z,7.9
2019-01-12T00:20:17.362Z,4.9
2019-01-12T00:25:17.172Z,3.2
2019-01-12T00:30:17.020Z,7.5
2019-01-12T00:35:16.859Z,7.5
2019-01-12T00:40:16.813Z,7.5
2019-01-12T00:45:17.769Z,7.5
2019-01-12T00:50:17.617Z,7.4
2019-01-12T00:55:17.493Z,7.6
2019-01-12T01:00:17.317Z,8.9
2019-01-12T01:05:17.162Z,7.7
2019-01-12T01:10:17.248Z,8.3
2019-01-12T01:15:17.274Z,4.3
2019-01-12T01:20:17.296Z,8.1
2019-01-12T01:25:17.160Z,7.5
2019-01-12T01:30:16.998Z,3.8
2019-01-12T01:35:16.821Z,2.8
2019-01-12T01:40:16.794Z,7.1
2019-01-12T01:45:17.731Z,1.1
2019-01-12T01:50:17.552Z,5.1
2019-01-12T01:55:17.410Z,6.6
2019-01-12T02:00:17.256Z,6.3
2019-01-12T02:05:17.063Z,3.2
2019-01-12T02:10:17.033Z,6.4
2019-01-12T02:15:16.840Z,3.5
2019-01-12T02:20:16.866Z,5.7
2019-01-12T02:25:17.842Z,6
2019-01-12T02:30:18.001Z,3.6
2019-01-12T02:35:16.866Z,5.5
2019-01-12T02:40:16.838Z,5.7
2019-01-12T02:45:17.778Z,6.4
2019-01-12T02:50:17.589Z,2.7
2019-01-12T02:55:17.402Z,5
2019-01-12T03:00:17.248Z,6.3
2019-01-12T03:05:17.107Z,2.4
2019-01-12T03:10:17.197Z,5.4
2019-01-12T03:15:17.057Z,5
2019-01-12T03:20:17.224Z,5.8
2019-01-12T03:25:19.123Z,5.7
2019-01-12T03:30:17.660Z,5.4
2019-01-12T03:35:17.840Z,5.2
2019-01-12T03:40:17.076Z,4.3
2019-01-12T03:45:16.926Z,3.9
2019-01-12T03:50:16.781Z,3
2019-01-12T03:55:25.997Z,3.6
2019-01-12T04:00:16.869Z,0.6
2019-01-12T04:05:18.062Z,1
2019-01-12T04:10:17.025Z,0.4
2019-01-12T04:15:16.846Z,0.4
2019-01-12T04:20:16.850Z,0.3
2019-01-12T04:25:18.053Z,1.3
2019-01-12T04:30:16.925Z,0.7
2019-01-12T04:35:16.762Z,1.9
2019-01-12T04:40:17.727Z,1.9
2019-01-12T04:45:17.540Z,0.3
2019-01-12T04:50:17.562Z,0.6
2019-01-12T04:55:17.387Z,0.4
2019-01-12T05:00:17.228Z,0.7
2019-01-12T05:05:17.067Z,1.8
2019-01-12T05:10:17.128Z,0.4
2019-01-12T05:15:17.076Z,0.5
2019-01-12T05:20:17.091Z,0.3
2019-01-12T05:25:16.965Z,1.2
2019-01-12T05:30:17.433Z,1
2019-01-12T05:35:17.262Z,1
2019-01-12T05:40:17.201Z,1.8
2019-01-12T05:45:17.013Z,1.4
2019-01-12T05:50:16.872Z,1.6
2019-01-12T05:55:17.733Z,0.9
2019-01-12T06:00:17.548Z,1.4
2019-01-12T06:05:17.367Z,1.8
2019-01-12T06:10:17.316Z,0.4
2019-01-12T06:15:17.125Z,0.6
2019-01-12T06:20:17.152Z,1.7
2019-01-12T06:25:17.230Z,2.2
2019-01-12T06:30:17.067Z,2.7
2019-01-12T06:35:16.885Z,4.1
2019-01-12T06:40:16.871Z,2.6
2019-01-12T06:45:17.717Z,1
2019-01-12T06:50:17.620Z,2.7
2019-01-12T06:55:17.518Z,0.5
2019-01-12T07:00:17.397Z,1
2019-01-12T07:05:17.270Z,1.2
2019-01-12T07:10:17.223Z,0.8
2019-01-12T07:15:17.041Z,0.8
2019-01-12T07:20:17.079Z,2.1
2019-01-12T07:25:16.905Z,1
2019-01-12T07:30:16.750Z,2
2019-01-12T07:35:17.939Z,1.7
2019-01-12T07:40:16.880Z,2.7
2019-01-12T07:45:17.750Z,2.1
2019-01-12T07:50:17.581Z,1.2
2019-01-12T07:55:17.557Z,1.6
2019-01-12T08:00:17.374Z,1.6
2019-01-12T08:05:17.222Z,2
2019-01-12T08:10:17.276Z,2
2019-01-12T08:15:17.245Z,2
2019-01-12T08:20:17.429Z,1.2
2019-01-12T08:25:17.281Z,2.4
2019-01-12T08:30:17.115Z,1.3
2019-01-12T08:35:16.986Z,2.8
2019-01-12T08:40:16.942Z,3.3
2019-01-12T08:45:16.775Z,0.5
2019-01-12T08:50:17.697Z,2.5
2019-01-12T08:55:17.515Z,3.2
2019-01-12T09:00:17.475Z,2.6
2019-01-12T09:05:17.296Z,1.2
2019-01-12T09:10:17.240Z,2
2019-01-12T09:15:17.121Z,1.7
2019-01-12T09:20:17.118Z,2.8
2019-01-12T09:25:16.946Z,0.6
2019-01-12T09:30:16.774Z,1.6
2019-01-12T09:35:17.708Z,2.3
2019-01-12T09:40:18.041Z,2.9
2019-01-12T09:45:16.853Z,1.1
2019-01-12T09:50:18.017Z,2.2
2019-01-12T09:55:16.878Z,2.9
2019-01-12T10:00:18.058Z,2.3
2019-01-12T10:05:16.938Z,2.7
2019-01-12T10:10:16.897Z,2.7
2019-01-12T10:15:17.736Z,3
2019-01-12T10:20:16.758Z,1.7
2019-01-12T10:25:17.909Z,2.2
2019-01-12T10:30:16.738Z,1.3
2019-01-12T10:35:17.640Z,4.5
2019-01-12T10:40:17.605Z,4.4
2019-01-12T10:45:17.466Z,4.8
2019-01-12T10:50:17.289Z,2.5
2019-01-12T10:55:17.139Z,2.3
2019-01-12T11:00:16.970Z,2.2
2019-01-12T11:05:16.803Z,1.6
2019-01-12T11:10:17.271Z,3.8
2019-01-12T11:15:17.189Z,4.7
2019-01-12T11:20:17.308Z,4.7
2019-01-12T11:25:17.628Z,5.1
2019-01-12T11:30:17.554Z,3.7
2019-01-12T11:35:17.420Z,5.2
2019-01-12T11:40:17.508Z,5.8
2019-01-12T11:45:17.452Z,6.1
2019-01-12T11:50:17.365Z,4.2
2019-01-12T11:55:17.197Z,6.9
2019-01-12T12:00:17.044Z,6.9
2019-01-12T12:05:17.553Z,8.1
2019-01-12T12:10:17.544Z,7.8
2019-01-12T12:15:17.398Z,7.8
2019-01-12T12:20:17.466Z,7.5
2019-01-12T12:25:17.349Z,7.2
2019-01-12T12:30:17.368Z,7.3
2019-01-12T12:35:17.244Z,6
2019-01-12T12:40:17.210Z,7.2
2019-01-12T12:45:17.060Z,6.2
2019-01-12T12:50:16.901Z,5.5
2019-01-12T12:55:18.090Z,5.8
2019-01-12T13:00:16.941Z,5.3
2019-01-12T13:05:16.760Z,2.9
2019-01-12T13:10:18.030Z,4.9
2019-01-12T13:15:17.024Z,5
2019-01-12T13:20:17.242Z,4.4
2019-01-12T13:25:17.097Z,4.1
2019-01-12T13:30:16.920Z,2.4
2019-01-12T13:35:16.789Z,2.3
2019-01-12T13:40:16.840Z,2.3
2019-01-12T13:45:17.856Z,3
2019-01-12T13:50:17.684Z,1.3
2019-01-12T13:55:17.575Z,1.4
2019-01-12T14:00:17.397Z,0.5
2019-01-12T14:05:17.219Z,1
2019-01-12T14:10:17.342Z,2.1
2019-01-12T14:15:17.357Z,1.2
2019-01-12T14:20:17.416Z,0.2
2019-01-12T14:25:17.425Z,0.9
2019-01-12T14:30:17.261Z,1.5
2019-01-12T14:35:17.084Z,1.5
2019-01-12T14:40:17.106Z,4.1
2019-01-12T14:45:17.092Z,4.4
2019-01-12T14:50:16.949Z,4.9
2019-01-12T14:55:16.796Z,4.6
2019-01-12T15:00:17.770Z,4.9
2019-01-12T15:05:17.636Z,3.3
2019-01-12T15:10:17.672Z,4.7
2019-01-12T15:15:17.517Z,12.2
2019-01-12T15:20:17.589Z,3.9
2019-01-12T15:25:17.429Z,4.8
2019-01-12T15:30:17.314Z,2.3
2019-01-12T15:35:17.309Z,4.7
2019-01-12T15:40:17.340Z,4.4
2019-01-12T15:45:17.219Z,5
2019-01-12T15:50:17.190Z,1.4
2019-01-12T15:55:17.066Z,4.6
2019-01-12T16:00:16.899Z,3.5
2019-01-12T16:05:17.831Z,4.2
2019-01-12T16:10:16.982Z,4
2019-01-12T16:15:17.252Z,4.2
2019-01-12T16:20:17.286Z,4.3
2019-01-12T16:25:17.098Z,3.3
2019-01-12T16:30:17.793Z,4.4
2019-01-12T16:35:22.930Z,4.6
2019-01-12T16:40:16.927Z,4.9
2019-01-12T16:45:16.766Z,5.2
2019-01-12T16:50:17.698Z,4.2
2019-01-12T16:55:17.530Z,0.9
2019-01-12T17:00:17.462Z,2.2
2019-01-12T17:05:17.277Z,3
2019-01-12T17:10:17.237Z,4.1
2019-01-12T17:15:17.083Z,4.8
2019-01-12T17:20:17.146Z,5.5
2019-01-12T17:25:16.956Z,3.5
2019-01-12T17:30:16.790Z,4.4
2019-01-12T17:35:17.885Z,5.1
2019-01-12T17:40:16.905Z,4.3
2019-01-12T17:45:17.938Z,5
2019-01-12T17:50:16.766Z,3.1
2019-01-12T17:55:17.593Z,3.9
2019-01-12T18:00:17.473Z,5.3
2019-01-12T18:05:17.345Z,5.8
2019-01-12T18:10:17.404Z,3.1
2019-01-12T18:15:17.244Z,4.7
2019-01-12T18:20:17.293Z,5.1
2019-01-12T18:25:17.279Z,3.8
2019-01-12T18:30:17.133Z,5.5
2019-01-12T18:35:16.964Z,4.7
2019-01-12T18:40:16.966Z,5.4
2019-01-12T18:45:17.064Z,4.9
2019-01-12T18:50:16.917Z,6
2019-01-12T18:55:16.742Z,2
2019-01-12T19:00:19.136Z,2.4
2019-01-12T19:05:16.957Z,3
2019-01-12T19:10:16.912Z,1.7
2019-01-12T19:15:16.725Z,2.7
2019-01-12T19:20:16.768Z,5
2019-01-12T19:25:17.668Z,5.7
2019-01-12T19:30:17.643Z,1.9
2019-01-12T19:35:17.559Z,4.9
2019-01-12T19:40:17.622Z,4.8
2019-01-12T19:45:17.512Z,4.9
2019-01-12T19:50:17.372Z,4.7
2019-01-12T19:55:17.302Z,5.1
2019-01-12T20:00:17.184Z,4.8
2019-01-12T20:05:17.037Z,4.8
2019-01-12T20:10:17.347Z,5.4
2019-01-12T20:15:17.238Z,4.8
2019-01-12T20:20:17.364Z,4.8
2019-01-12T20:25:17.218Z,5.1
2019-01-12T20:30:17.077Z,4.6
2019-01-12T20:35:16.928Z,4.8
2019-01-12T20:40:16.877Z,4.5
2019-01-12T20:45:17.725Z,4.5
2019-01-12T20:50:17.625Z,4.5
2019-01-12T20:55:17.512Z,2.3
2019-01-12T21:00:17.354Z,0.8
2019-01-12T21:05:17.160Z,1.1
2019-01-12T21:10:17.122Z,0.9
2019-01-12T21:15:16.954Z,1.5
2019-01-12T21:20:16.961Z,2.2
2019-01-12T21:25:22.935Z,0.9
2019-01-12T21:30:16.794Z,2.3
2019-01-12T21:35:17.715Z,0.4
2019-01-12T21:40:17.664Z,0.4
2019-01-12T21:45:17.501Z,0.8
2019-01-12T21:50:17.485Z,1
2019-01-12T21:55:17.313Z,0.2
2019-01-12T22:00:17.139Z,0.9
2019-01-12T22:05:17.025Z,0.6
2019-01-12T22:10:19.568Z,0.6
2019-01-12T22:15:17.454Z,0.5
2019-01-12T22:20:17.565Z,0.1
2019-01-12T22:25:17.449Z,0.8
2019-01-12T22:30:17.341Z,2.6
2019-01-12T22:35:17.224Z,0.3
2019-01-12T22:40:17.216Z,0.7
2019-01-12T22:45:17.073Z,0.8
2019-01-12T22:50:16.893Z,1
2019-01-12T22:55:17.733Z,0.5
2019-01-12T23:00:17.553Z,1.8
2019-01-12T23:05:17.594Z,1.5
2019-01-12T23:10:17.544Z,1.4
2019-01-12T23:15:17.405Z,1.5
2019-01-12T23:20:17.431Z,1.5
2019-01-12T23:25:17.264Z,3.9
2019-01-12T23:30:17.089Z,2.6
2019-01-12T23:35:16.915Z,2.3
2019-01-12T23:40:16.882Z,3.2
2019-01-12T23:45:17.708Z,2.3
2019-01-12T23:50:17.618Z,5.4
2019-01-12T23:55:17.489Z,5.2
